Tiempo atmosférico en la estación meteorológica de Ramales de la Victoria, Cantabria (80 m.)



Fecha
DESCASC
Temp. máxima en grados centígrados (hora)
DESCASC
Temp. mínima en grados centígrados (hora)
DESCASC
Temp. media en grados centígrados
DESCASC
Racha de viento máxima en m/sg (hora)
DESCASC
Velocidad máxima media en intervalos de 10 minutos(hora)
DESCASC
Precipitaciones diarias en mm
DESCASC
Precipitaciones de 00:00 a 06:00 en mm
DESCASC
Precipitaciones de 06:00 a 12:00 en mm
DESCASC
Precipitaciones de 12:00 a 18:00 en mm
DESCASC
Precipitaciones de 18:00 a 24:00 en mm
DESCASC
08-12-2019 13.1 (16:10) 4 (05:30) 8.6 10.83 (16:10) 5 (16:40) 4.4 0 0.6 3.6 0.2
07-12-2019 13.3 (14:00) 3.2 (08:40) 8.3 2.22 (12:00) 1.11 (23:00) 0 0 0 0 0
06-12-2019 -- (--) -- (--) -- -- (--) -- (--) -- 0 -- 0 0
05-12-2019 11.5 (15:50) 6.2 (00:00) 8.8 4.17 (00:50) 2.5 (00:10) 0.4 0.2 0.2 0 0
04-12-2019 11.3 (14:20) -0.4 (00:00) 5.5 5.28 (16:50) 3.33 (22:10) 0.2 0 0 0 0.2
03-12-2019 10 (14:00) 1.5 (00:00) 5.8 4.17 (14:10) 1.94 (02:30) 0.2 0.2 0 0 0
02-12-2019 10.4 (11:20) 7.4 (00:00) 8.9 6.11 (13:40) 2.5 (13:40) 11.4 2.8 8.6 0 0
01-12-2019 14.2 (13:40) 5.3 (00:00) 9.8 4.44 (18:20) 2.22 (18:20) 11.2 0.2 0 0 11
30-11-2019 19.2 (07:30) 6.9 (00:00) 13.1 16.39 (08:10) 6.67 (06:40) 11.2 0 6.6 4.6 0
29-11-2019 17.1 (12:40) 7.1 (00:00) 12.1 2.22 (12:20) 1.11 (14:50) 2.6 2.2 0.4 0 0
28-11-2019 12.2 (15:10) 7 (00:00) 9.6 5.56 (18:20) 2.5 (18:20) 6.4 0.6 0 5 0.8
27-11-2019 16.5 (15:00) 6.8 (00:00) 11.7 7.22 (16:10) 3.06 (16:10) 1 0 0 1 0
26-11-2019 21.6 (18:20) 9.2 (00:00) 15.4 20.28 (18:30) 9.17 (18:30) 1 0 0 0 1
25-11-2019 17.9 (13:00) 9.1 (00:00) 13.5 11.67 (00:50) 6.39 (00:50) 0 0 0 0 0
24-11-2019 14.9 (20:40) 8.4 (00:00) 11.6 11.39 (22:00) 4.17 (21:50) 4.4 1.8 2 0 0.6
23-11-2019 15.1 (00:00) 8.6 (00:00) 11.9 20.28 (08:20) 6.11 (06:50) 38.8 14.6 13.6 4.2 6.4
22-11-2019 17.6 (17:00) 12.1 (00:00) 14.9 19.44 (12:00) 6.94 (21:50) 1.6 0 0.2 1.2 0.2
21-11-2019 17.2 (14:20) 4.1 (00:00) 10.7 18.33 (02:00) 5.83 (00:10) 0 0 0 0 0
20-11-2019 13.8 (12:20) 1.8 (00:00) 7.8 13.61 (20:10) 5.28 (23:50) 0 0 0 0 0
19-11-2019 12.9 (14:10) 3.3 (00:00) 8.1 2.5 (13:00) 1.67 (13:00) 0.2 0.2 0 0 0
18-11-2019 11.2 (14:30) 6.7 (00:00) 8.9 4.72 (11:20) 2.22 (00:10) 6.6 3.4 0.8 0.6 1.8
17-11-2019 13.7 (13:10) 6.6 (00:00) 10.1 8.61 (19:40) 3.33 (19:40) 21.8 1.6 3.8 4 12.4
16-11-2019 11.9 (14:00) 1.3 (00:00) 6.6 11.39 (13:20) 3.61 (13:20) 11.8 0.8 6 4.4 0.6
15-11-2019 8.4 (10:10) 1.9 (00:00) 5.1 8.33 (10:10) 4.17 (10:10) 39.4 8.4 16 8.2 6.8
14-11-2019 13.8 (14:00) 2.2 (00:00) 8 8.33 (06:30) 3.61 (00:50) 29.2 19.8 0.2 0.8 8.4
13-11-2019 12.4 (13:20) 7.6 (00:00) 10 7.5 (23:30) 2.78 (23:30) 28.8 13.4 9.6 2 3.8
12-11-2019 13.7 (14:50) 8 (00:00) 10.8 4.72 (21:00) 1.67 (19:20) 13 6.2 0.4 0.4 6
11-11-2019 13 (11:20) 7.6 (00:00) 10.3 10.83 (11:30) 4.17 (11:30) 11.6 0.4 8.2 0.8 2.2
10-11-2019 11.5 (14:20) 6.3 (00:00) 8.9 9.44 (12:30) 3.33 (16:10) 38.2 5.8 17.6 5.6 9.2
09-11-2019 13.8 (15:20) 7.8 (00:00) 10.8 11.67 (16:30) 4.72 (16:40) 27.2 3.8 1.4 3 19

Gráficas

Temp. máximas Temp. mínimas Temp. medias Precipitaciones Rachas de viento máximas Velocidades máximas media en intervalos de 10 minutos

Datos horarios

Fecha y hora oficial Temperatura (ºC) Velocidad del viento (km/h) Dirección del viento Racha (km/h) Dirección de racha Precipitación (mm) Presión (hPa) Tendencia (hPa) Humedad (%)
2019-12-08 23:00:00 7.3 0 Calma 5 Oeste 0 -- -- 98
2019-12-08 22:00:00 8.6 2 Sur 9 Oeste 0 -- -- 97
2019-12-08 21:00:00 10.3 2 Sudeste 12 Oeste 0 -- -- 94
2019-12-08 20:00:00 11.5 3 Noroeste 19 Oeste 0 -- -- 92
2019-12-08 19:00:00 11.4 3 Oeste 15 Oeste 0 -- -- 94
2019-12-08 18:00:00 11.5 4 Oeste 12 Noroeste 0.8 -- -- 95
2019-12-08 17:00:00 11.9 8 Noroeste 39 Oeste 0.6 -- -- 91
2019-12-08 16:00:00 12.7 3 Noroeste 13 Nordeste 0.4 -- -- 100
2019-12-08 15:00:00 11.5 0 Calma 6 Oeste 1.4 -- -- 100
2019-12-08 14:00:00 11 0 Calma 4 Este 0.2 -- -- 100
2019-12-08 13:00:00 10.3 0 Calma 5 Oeste 0.2 -- -- 100
2019-12-08 12:00:00 9.4 0 Calma 4 Este 0.4 -- -- 100
2019-12-08 11:00:00 8.5 2 Oeste 5 Sudoeste 0.2 -- -- 100
2019-12-08 10:00:00 7.4 0 Calma 8 Oeste 0 -- -- 100
2019-12-08 09:00:00 6.4 2 Oeste 6 Oeste 0 -- -- 100
2019-12-08 08:00:00 5.6 2 Oeste 4 Oeste 0 -- -- 100
2019-12-08 07:00:00 4.9 0 Calma 5 Sudoeste 0 -- -- 100
2019-12-08 06:00:00 4.5 2 Sudoeste 7 Oeste 0 -- -- 100
2019-12-08 05:00:00 4.3 3 Oeste 4 Este 0 -- -- 100
2019-12-08 04:00:00 4.9 0 Calma 7 Sudeste 0 -- -- 100
2019-12-08 03:00:00 5.1 0 Calma 5 Oeste 0 -- -- 99
2019-12-08 02:00:00 5.3 0 Calma 4 Oeste 0 -- -- 99
2019-12-08 01:00:00 5.9 0 Calma 3 Oeste 0 -- -- 99
2019-12-08 00:00:00 6.8 0 Calma 4 Sudeste 0 -- -- 99
2019-12-07 23:00:00 7.8 4 Oeste 7 Oeste 0 -- -- 100
2019-12-07 22:00:00 7.3 3 Oeste 6 Noroeste 0 -- -- 99
2019-12-07 21:00:00 7.9 0 Calma 8 Oeste 0 -- -- 99
2019-12-07 20:00:00 7.8 0 Calma 3 Oeste 0 -- -- 98
2019-12-07 19:00:00 7.9 0 Calma 4 Oeste 0 -- -- 96
2019-12-07 18:00:00 9.1 0 Calma 4 Sur 0 -- -- 95
2019-12-07 17:00:00 10.5 3 Sur 5 Sur 0 -- -- 93
2019-12-07 16:00:00 11.9 2 Sudoeste 5 Oeste 0 -- -- 89
2019-12-07 15:00:00 13.2 3 Oeste 6 Oeste 0 -- -- 89
2019-12-07 14:00:00 13.3 0 Calma 4 Oeste 0 -- -- 85
2019-12-07 13:00:00 11.7 0 Calma 6 Este 0 -- -- 85
2019-12-07 12:00:00 8.2 4 Este 8 Este 0 -- -- 100
2019-12-07 11:00:00 5.9 0 Calma 3 Oeste 0 -- -- 100
2019-12-07 10:00:00 4.1 2 Sudeste 5 Sudeste 0 -- -- 100
2019-12-07 09:00:00 3.2 0 Calma 4 Sudoeste 0 -- -- 100
2019-12-07 08:00:00 3.6 0 Calma 5 Oeste 0 -- -- 100
2019-12-07 07:00:00 4.3 2 Oeste 4 Oeste 0 -- -- 100
2019-12-07 06:00:00 4.6 0 Calma 5 Oeste 0 -- -- 99
2019-12-07 05:00:00 4.8 0 Calma 5 Oeste 0 -- -- 99
2019-12-07 04:00:00 5.1 0 Calma 4 Oeste 0 -- -- 99
2019-12-07 03:00:00 5.6 0 Calma 3 Sur 0 -- -- 99
2019-12-07 02:00:00 5.9 0 Calma 4 Sudoeste 0 -- -- 99
2019-12-07 01:00:00 6.5 0 Calma 4 Oeste 0 -- -- 98
2019-12-07 00:00:00 7.4 3 Oeste 5 Oeste 0 -- -- 99
2019-12-06 23:00:00 7.1 3 Oeste 5 Oeste 0 -- -- 99
2019-12-06 22:00:00 6.8 0 Calma 4 Sudeste 0 -- -- 98
2019-12-06 21:00:00 7.6 0 Calma 4 Oeste 0 -- -- 97
2019-12-06 20:00:00 8.3 0 Calma 5 Sudoeste 0 -- -- 97
2019-12-06 19:00:00 8.4 0 Calma 4 Noroeste 0 -- -- 96
2019-12-06 18:00:00 9 3 Sur 5 Sur 0 -- -- 92
2019-12-06 17:00:00 10.9 0 Calma 4 Sur 0 -- -- 89
2019-12-06 16:00:00 12.2 2 Sudoeste 6 Oeste 0 -- -- 85
2019-12-06 15:00:00 12.6 0 Calma 4 Sudoeste 0 -- -- 87
2019-12-06 14:00:00 12.6 0 Calma 4 Sur 0 -- -- 78
2019-12-06 13:00:00 10.6 0 Calma 4 Oeste 0 -- -- 82
2019-12-06 12:00:00 8.3 0 Calma -- -- -- -- -- 93
2019-12-06 11:00:00 -- -- -- -- -- -- -- -- --
2019-12-06 10:00:00 4.8 2 Noroeste 9 Noroeste 0 -- -- 100
2019-12-06 09:00:00 4.5 4 Oeste 6 Oeste 0 -- -- 99
2019-12-06 08:00:00 4.2 0 Calma 7 Sudeste 0 -- -- 99
2019-12-06 07:00:00 4.8 2 Sudeste 4 Sudeste 0 -- -- 99
2019-12-06 06:00:00 4.9 0 Calma 8 Sudeste 0 -- -- 99
2019-12-06 05:00:00 5.3 0 Calma 5 Este 0 -- -- 99
2019-12-06 04:00:00 5.2 0 Calma 6 Sudeste 0 -- -- 100
2019-12-06 03:00:00 5.4 3 Oeste 5 Sudeste 0 -- -- 100
2019-12-06 02:00:00 5.3 2 Oeste 5 Oeste 0 -- -- 99
2019-12-06 01:00:00 5.5 2 Sudoeste 6 Oeste 0 -- -- 99
2019-12-06 00:00:00 6.2 3 Este 7 Sur 0 -- -- 98
2019-12-05 23:00:00 7 0 Calma 9 Sur 0 -- -- 98
2019-12-05 22:00:00 7.8 3 Sudeste 9 Este 0 -- -- 98
2019-12-05 21:00:00 8.5 0 Calma 3 Oeste 0 -- -- 98
2019-12-05 20:00:00 9.1 0 Calma 4 Este 0 -- -- 98
2019-12-05 19:00:00 9.4 0 Calma 2 Sudoeste 0 -- -- 97
2019-12-05 18:00:00 9.9 0 Calma 3 Sudeste 0 -- -- 95
2019-12-05 17:00:00 11.2 0 Calma 3 Este 0 -- -- 92
2019-12-05 16:00:00 11.5 0 Calma 2 Norte 0 -- -- 89
2019-12-05 15:00:00 11.3 0 Calma 4 Oeste 0 -- -- 91
2019-12-05 14:00:00 10.9 0 Calma 4 Nordeste 0 -- -- 92
2019-12-05 13:00:00 10.6 0 Calma 4 Oeste 0 -- -- 91
2019-12-05 12:00:00 9.8 0 Calma 3 Norte 0 -- -- 97
2019-12-05 11:00:00 9.3 0 Calma 4 Sur 0 -- -- 98
2019-12-05 10:00:00 8.8 0 Calma 6 Oeste 0.2 -- -- 98
2019-12-05 09:00:00 8.6 3 Noroeste 8 Noroeste 0 -- -- 98
2019-12-05 08:00:00 8.4 0 Calma 4 Oeste 0 -- -- 97
2019-12-05 07:00:00 8.6 2 Sudeste 4 Oeste 0 -- -- 97
2019-12-05 06:00:00 8.9 0 Calma 8 Nordeste 0 -- -- 96
2019-12-05 05:00:00 8.9 2 Sudoeste 6 Este 0 -- -- 97
2019-12-05 04:00:00 8.8 0 Calma 6 Sudoeste 0 -- -- 96
2019-12-05 03:00:00 8.9 0 Calma 9 Oeste 0 -- -- 96
2019-12-05 02:00:00 8.8 4 Noroeste 14 Oeste 0 -- -- 94
2019-12-05 01:00:00 9.3 7 Noroeste 15 Oeste 0.2 -- -- 95
2019-12-05 00:00:00 9.2 8 Noroeste 19 Oeste 0.2 -- -- 96
2019-12-04 23:00:00 9.5 9 Noroeste 19 Oeste 0 -- -- 92
2019-12-04 22:00:00 10 9 Noroeste 17 Oeste 0 -- -- 88
2019-12-04 21:00:00 10.1 8 Oeste 16 Oeste 0 -- -- 87
2019-12-04 20:00:00 9.9 7 Oeste 14 Oeste 0 -- -- 86
2019-12-04 19:00:00 8.8 2 Sur 7 Oeste 0 -- -- 90
2019-12-04 18:00:00 9.3 0 Calma 11 Noroeste 0 -- -- 86
2019-12-04 17:00:00 10.4 4 Noroeste 19 Sudoeste 0 -- -- 82
2019-12-04 16:00:00 10.2 2 Noroeste 12 Noroeste 0 -- -- 76
2019-12-04 15:00:00 9.7 4 Sudoeste 9 Este 0 -- -- 85
2019-12-04 14:00:00 11.1 3 Este 8 Nordeste 0 -- -- 82
2019-12-04 13:00:00 9.3 2 Sur 6 Sudoeste 0 -- -- 89
2019-12-04 12:00:00 6.9 0 Calma 5 Oeste 0 -- -- 100
2019-12-04 11:00:00 3.3 0 Calma 5 Este 0 -- -- 100
2019-12-04 10:00:00 0.6 0 Calma 5 Oeste 0 -- -- 100
2019-12-04 09:00:00 -0.2 0 Calma 5 Oeste 0 -- -- 100
2019-12-04 08:00:00 -0.4 0 Calma 3 Oeste 0 -- -- 100
2019-12-04 07:00:00 -0.3 2 Sur 3 Sur 0 -- -- 100
2019-12-04 06:00:00 0.1 0 Calma 4 Este 0 -- -- 100
2019-12-04 05:00:00 0.2 0 Calma 4 Noroeste 0 -- -- 99
2019-12-04 04:00:00 0.8 0 Calma 4 Noroeste 0 -- -- 100
2019-12-04 03:00:00 0.9 0 Calma 5 Sudoeste 0 -- -- 99
2019-12-04 02:00:00 1.2 0 Calma 5 Oeste 0 -- -- 99
2019-12-04 01:00:00 1.5 0 Calma 5 Oeste 0 -- -- 99
2019-12-04 00:00:00 1.7 0 Calma 5 Oeste 0 -- -- 99
2019-12-03 23:00:00 1.7 2 Oeste 6 Oeste 0 -- -- 98
2019-12-03 22:00:00 2 3 Oeste 6 Oeste 0 -- -- 98
2019-12-03 21:00:00 2.3 0 Calma 8 Oeste 0 -- -- 97
2019-12-03 20:00:00 2.9 0 Calma 5 Oeste 0 -- -- 96
2019-12-03 19:00:00 3.8 0 Calma 4 Oeste 0 -- -- 96
2019-12-03 18:00:00 4.8 0 Calma 4 Oeste 0 -- -- 93
2019-12-03 17:00:00 5.9 0 Calma 4 Oeste 0 -- -- 91
2019-12-03 16:00:00 7 3 Sur 10 Este 0 -- -- 87
2019-12-03 15:00:00 8.8 6 Este 15 Nordeste 0 -- -- 73
2019-12-03 14:00:00 10 4 Sudeste 9 Nordeste 0 -- -- 70
2019-12-03 13:00:00 9.6 2 Nordeste 9 Noroeste 0 -- -- 71
2019-12-03 12:00:00 9.5 4 Oeste 10 Oeste 0 -- -- 76
2019-12-03 11:00:00 7.8 0 Calma 6 Oeste 0 -- -- 87
2019-12-03 10:00:00 6.9 0 Calma 5 Oeste 0 -- -- 91
2019-12-03 09:00:00 6.3 0 Calma 2 Sur 0 -- -- 94
2019-12-03 08:00:00 6.5 0 Calma 6 Oeste 0 -- -- 95
2019-12-03 07:00:00 6.7 4 Oeste 8 Noroeste 0 -- -- 93
2019-12-03 06:00:00 6.8 3 Noroeste 6 Oeste 0 -- -- 93
2019-12-03 05:00:00 7 4 Noroeste 8 Oeste 0.2 -- -- 90
2019-12-03 04:00:00 7 5 Noroeste 9 Oeste 0 -- -- 91
2019-12-03 03:00:00 7.4 3 Noroeste 14 Oeste 0 -- -- 88
2019-12-03 02:00:00 7.5 2 Noroeste 11 Oeste 0 -- -- 89
2019-12-03 01:00:00 7.5 6 Oeste 12 Oeste 0 -- -- 90
2019-12-03 00:00:00 7.4 6 Oeste 12 Oeste 0 -- -- 92
2019-12-02 23:00:00 7.4 3 Oeste 6 Oeste 0 -- -- 92
2019-12-02 22:00:00 7.5 5 Oeste 11 Oeste 0 -- -- 91
2019-12-02 21:00:00 7.5 6 Oeste 11 Oeste 0 -- -- 93
2019-12-02 20:00:00 7.4 4 Noroeste 9 Oeste 0 -- -- 92
2019-12-02 19:00:00 7.7 3 Oeste 8 Oeste 0 -- -- 91
2019-12-02 18:00:00 8.1 3 Noroeste 14 Oeste 0 -- -- 87
2019-12-02 17:00:00 8.6 5 Noroeste 19 Oeste 0 -- -- 85
2019-12-02 16:00:00 8.9 6 Oeste 14 Noroeste 0 -- -- 84
2019-12-02 15:00:00 9.2 3 Norte 13 Noroeste 0 -- -- 83
2019-12-02 14:00:00 9.5 6 Noroeste 22 Nordeste 0 -- -- 85
2019-12-02 13:00:00 10.1 6 Noroeste 15 Norte 0 -- -- 88
2019-12-02 12:00:00 10.1 4 Noroeste 14 Noroeste 0 -- -- 89
2019-12-02 11:00:00 10.1 4 Noroeste 12 Oeste 0.2 -- -- 92
2019-12-02 10:00:00 9.5 3 Oeste 16 Sudoeste 0.4 -- -- 98
2019-12-02 09:00:00 8.9 3 Sudoeste 9 Oeste 1.8 -- -- 99
2019-12-02 08:00:00 8.7 0 Calma 7 Sudoeste 2.8 -- -- 99
2019-12-02 07:00:00 8.6 5 Oeste 11 Noroeste 3.4 -- -- 99
2019-12-02 06:00:00 8.5 0 Calma 5 Oeste 0.2 -- -- 99
2019-12-02 05:00:00 8.5 0 Calma 3 Este 0.6 -- -- 99
2019-12-02 04:00:00 8.4 2 Oeste 5 Norte 1.8 -- -- 98
2019-12-02 03:00:00 8.3 3 Norte 5 Nordeste 0 -- -- 98
2019-12-02 02:00:00 8.2 0 Calma 5 Oeste 0.2 -- -- 98
2019-12-02 01:00:00 8.2 0 Calma 8 Sudoeste 0 -- -- 96
2019-12-02 00:00:00 8.5 2 Sudoeste 8 Oeste 0.8 -- -- 97
2019-12-01 23:00:00 8.8 0 Calma 8 Sur 2.8 -- -- 95
2019-12-01 22:00:00 9.1 4 Oeste 8 Sudoeste 2.8 -- -- 95
2019-12-01 21:00:00 9.5 3 Sudoeste 6 Sudoeste 2.4 -- -- 95
2019-12-01 20:00:00 9.9 0 Calma 7 Este 2.2 -- -- 95
2019-12-01 19:00:00 10.4 3 Sudeste 16 Sudeste 0 -- -- 90
2019-12-01 18:00:00 10.5 2 Sur 5 Sudoeste 0 -- -- 94
2019-12-01 17:00:00 11.7 0 Calma 4 Sur 0 -- -- 90
2019-12-01 16:00:00 12.5 0 Calma 4 Sudoeste 0 -- -- 90
2019-12-01 15:00:00 13.3 2 Oeste 7 Norte 0 -- -- 80
2019-12-01 14:00:00 13.9 4 Oeste 8 Oeste 0 -- -- 78
2019-12-01 13:00:00 13 0 Calma 5 Sudeste 0 -- -- 77
2019-12-01 12:00:00 11.5 0 Calma 4 Oeste 0 -- -- 90
2019-12-01 11:00:00 8.5 3 Oeste 7 Oeste 0 -- -- 99
2019-12-01 10:00:00 7 0 Calma 6 Sudoeste 0 -- -- 100
2019-12-01 09:00:00 6.2 4 Oeste 6 Oeste 0 -- -- 100
2019-12-01 08:00:00 5.9 3 Oeste 8 Oeste 0 -- -- 100
2019-12-01 07:00:00 5.4 2 Sudoeste 6 Sudoeste 0 -- -- 99
2019-12-01 06:00:00 5.6 0 Calma 8 Sudeste 0 -- -- 99
2019-12-01 05:00:00 5.4 2 Noroeste 7 Noroeste 0 -- -- 99
2019-12-01 04:00:00 5.8 0 Calma 5 Noroeste 0 -- -- 99
2019-12-01 03:00:00 6.4 0 Calma 5 Sudeste 0 -- -- 99
2019-12-01 02:00:00 6.9 2 Oeste 5 Oeste 0.2 -- -- 99
2019-12-01 01:00:00 7.1 0 Calma 7 Oeste 0 -- -- 99
2019-12-01 00:00:00 7.3 0 Calma 4 Oeste 0 -- -- 99
2019-11-30 23:00:00 7.9 3 Noroeste 5 Noroeste 0 -- -- 99
2019-11-30 22:00:00 7.6 0 Calma 6 Oeste 0 -- -- 99
2019-11-30 21:00:00 7.7 0 Calma 4 Oeste 0 -- -- 97
2019-11-30 20:00:00 8.7 0 Calma 4 Sudoeste 0 -- -- 97
2019-11-30 19:00:00 9.4 0 Calma 5 Oeste 0 -- -- 96
2019-11-30 18:00:00 10.6 3 Oeste 5 Sudeste 0 -- -- 96
2019-11-30 17:00:00 11.5 2 Noroeste 6 Sur 0.2 -- -- 96
2019-11-30 16:00:00 11.8 2 Sudoeste 10 Este 0.6 -- -- 97
2019-11-30 15:00:00 11.8 3 Nordeste 6 Este 1 -- -- 96
2019-11-30 14:00:00 11.8 2 Oeste 6 Nordeste 1 -- -- 96
2019-11-30 13:00:00 11.6 0 Calma 5 Sur 1.8 -- -- 95
2019-11-30 12:00:00 11.7 3 Sur 14 Oeste 3.4 -- -- 93
2019-11-30 11:00:00 11.9 6 Oeste 39 Oeste 0.4 -- -- 90
2019-11-30 10:00:00 13.9 4 Sudoeste 42 Noroeste 2.8 -- -- 90
2019-11-30 09:00:00 19.1 12 Sur 59 Sur 0 -- -- 61
2019-11-30 08:00:00 19 18 Sudoeste 48 Sudeste 0 -- -- 60
2019-11-30 07:00:00 19 22 Sur 57 Sur 0 -- -- 62
2019-11-30 06:00:00 18.6 21 Sur 58 Sur 0 -- -- 65
2019-11-30 05:00:00 17.7 20 Sur 53 Sur 0 -- -- 67
2019-11-30 04:00:00 15.7 8 Sudoeste 31 Sur 0 -- -- 76
2019-11-30 03:00:00 7.4 5 Oeste 13 Sudoeste 0 -- -- 100
2019-11-30 02:00:00 7 3 Oeste 7 Sudoeste 0 -- -- 100
2019-11-30 01:00:00 7.2 3 Norte 9 Sur 0 -- -- 99
2019-11-30 00:00:00 7.1 4 Oeste 7 Oeste 0 -- -- 99
2019-11-29 23:00:00 7.3 0 Calma 6 Oeste 0 -- -- 99
2019-11-29 22:00:00 7.6 0 Calma 7 Oeste 0 -- -- 98
2019-11-29 21:00:00 7.8 0 Calma 6 Oeste 0 -- -- 98
2019-11-29 20:00:00 8.3 0 Calma 3 Oeste 0 -- -- 97
2019-11-29 19:00:00 9.2 0 Calma 2 Oeste 0 -- -- 96
2019-11-29 18:00:00 10.4 0 Calma 3 Sudoeste 0 -- -- 95
2019-11-29 17:00:00 11.6 0 Calma 4 Sudoeste 0 -- -- 95
2019-11-29 16:00:00 12.4 4 Sudoeste 8 Oeste 0 -- -- 92
2019-11-29 15:00:00 13.8 4 Oeste 6 Sudoeste 0 -- -- 87
2019-11-29 14:00:00 15.4 3 Sudoeste 5 Oeste 0 -- -- 85
2019-11-29 13:00:00 16.8 0 Calma 8 Oeste 0 -- -- 79
2019-11-29 12:00:00 16.1 4 Oeste 6 Oeste 0 -- -- 86
2019-11-29 11:00:00 13.7 0 Calma 6 Oeste 0.2 -- -- 99
2019-11-29 10:00:00 11.9 0 Calma 3 Oeste 0 -- -- 100
2019-11-29 09:00:00 10.7 0 Calma 3 Este 0 -- -- 100
2019-11-29 08:00:00 10.8 0 Calma 4 Oeste 0 -- -- 100
2019-11-29 07:00:00 10.8 0 Calma 2 Sudeste 0.2 -- -- 100
2019-11-29 06:00:00 10.9 0 Calma 4 Sur 0 -- -- 100
2019-11-29 05:00:00 10.7 0 Calma 3 Oeste 0 -- -- 99
2019-11-29 04:00:00 10.6 0 Calma 5 Oeste 0.4 -- -- 99
2019-11-29 03:00:00 10.7 0 Calma 4 Sudeste 0.2 -- -- 99
2019-11-29 02:00:00 10.6 2 Oeste 4 Oeste 0.8 -- -- 99
2019-11-29 01:00:00 10.6 4 Oeste 6 Oeste 0.8 -- -- 99
2019-11-29 00:00:00 10.5 2 Sudoeste 5 Norte 0.2 -- -- 99
2019-11-28 23:00:00 10.4 0 Calma 5 Oeste 0.2 -- -- 98
2019-11-28 22:00:00 10.5 2 Noroeste 9 Este 0.2 -- -- 98
2019-11-28 21:00:00 10.4 3 Sur 4 Sudeste 0 -- -- 98
2019-11-28 20:00:00 10.7 0 Calma 6 Sudoeste 0 -- -- 97
2019-11-28 19:00:00 11.1 3 Sudoeste 20 Este 0.2 -- -- 95
2019-11-28 18:00:00 11.2 4 Sur 17 Sudeste 0.8 -- -- 96
2019-11-28 17:00:00 11.7 2 Sudeste 9 Sudoeste 2.2 -- -- 96
2019-11-28 16:00:00 12.1 0 Calma 5 Oeste 2 -- -- 96
2019-11-28 15:00:00 12.1 3 Sudoeste 7 Oeste 0 -- -- 95
2019-11-28 14:00:00 11.9 2 Este 5 Este 0 -- -- 95
2019-11-28 13:00:00 11.6 0 Calma 3 Noroeste 0 -- -- 95
2019-11-28 12:00:00 10.5 0 Calma 4 Sudoeste 0 -- -- 97
2019-11-28 11:00:00 9.7 0 Calma 2 Oeste 0 -- -- 99
2019-11-28 10:00:00 9 0 Calma 6 Oeste 0 -- -- 100
2019-11-28 09:00:00 8.2 2 Este 4 Este 0 -- -- 100
2019-11-28 08:00:00 7.6 0 Calma 5 Oeste 0 -- -- 99
2019-11-28 07:00:00 7.4 0 Calma 5 Noroeste 0 -- -- 99
2019-11-28 06:00:00 7.1 2 Noroeste 4 Sudoeste 0 -- -- 99
2019-11-28 05:00:00 7.1 2 Oeste 5 Sudoeste 0.2 -- -- 99
2019-11-28 04:00:00 7.9 4 Este 13 Oeste 0.4 -- -- 99
2019-11-28 03:00:00 7.7 3 Sudeste 6 Este 0 -- -- 99
2019-11-28 02:00:00 7.8 0 Calma 5 Oeste 0 -- -- 98
2019-11-28 01:00:00 7.8 2 Sudoeste 4 Oeste 0 -- -- 98
2019-11-28 00:00:00 8.2 0 Calma 5 Oeste 0 -- -- 97
2019-11-27 23:00:00 9.2 0 Calma 4 Sudeste 0 -- -- 98
2019-11-27 22:00:00 9.4 0 Calma 6 Oeste 0 -- -- 98
2019-11-27 21:00:00 9.6 0 Calma 5 Sudoeste 0 -- -- 97
2019-11-27 20:00:00 10.2 3 Sudoeste 7 Oeste 0 -- -- 97
2019-11-27 19:00:00 10.4 3 Oeste 5 Oeste 0 -- -- 96
2019-11-27 18:00:00 10.8 3 Oeste 6 Sur 0 -- -- 95
2019-11-27 17:00:00 11.7 2 Este 26 Oeste 0.8 -- -- 92
2019-11-27 16:00:00 14.2 6 Sudoeste 18 Sudoeste 0.2 -- -- 75
2019-11-27 15:00:00 16.5 9 Sudoeste 26 Sur 0 -- -- 55
2019-11-27 14:00:00 14.2 0 Calma 17 Nordeste 0 -- -- 77
2019-11-27 06:00:00 -- -- -- -- -- -- -- -- --
2019-11-27 05:00:00 8.8 3 Oeste 10 Oeste 0 -- -- 97
2019-11-27 04:00:00 8.5 3 Noroeste 8 Noroeste 0 -- -- 97
2019-11-27 03:00:00 9 2 Oeste 8 Sudoeste 0 -- -- 96
2019-11-27 02:00:00 10.2 4 Sur 18 Este 0 -- -- 94
2019-11-27 01:00:00 10.8 6 Sudeste 19 Este 0 -- -- 95
2019-11-27 00:00:00 10.2 2 Norte 6 Sudoeste 0 -- -- 95
2019-11-26 23:00:00 11.4 3 Oeste 10 Este 0 -- -- 93
2019-11-26 22:00:00 13.2 2 Nordeste 31 Oeste 0.6 -- -- 89
2019-11-26 21:00:00 17.2 22 Oeste 54 Oeste 0.4 -- -- 73
2019-11-26 20:00:00 20.3 23 Sudoeste 64 Oeste 0 -- -- 46
2019-11-26 19:00:00 20.9 21 Oeste 73 Oeste 0 -- -- 45
2019-11-26 18:00:00 21.1 22 Oeste 63 Oeste 0 -- -- 43
2019-11-26 17:00:00 19 9 Este 22 Este 0 -- -- 68
2019-11-26 16:00:00 19.9 12 Sudeste 37 Oeste 0 -- -- 60
2019-11-26 15:00:00 20.3 11 Sudeste 33 Sudeste 0 -- -- 55
2019-11-26 14:00:00 20.1 8 Nordeste 31 Este 0 -- -- 58
2019-11-26 13:00:00 19.8 11 Este 35 Este 0 -- -- 62
2019-11-26 12:00:00 19.5 13 Este 45 Sur 0 -- -- 61
2019-11-26 11:00:00 19.3 14 Sudoeste 48 Sur 0 -- -- 61
2019-11-26 10:00:00 18.8 27 Sur 67 Sur 0 -- -- 60
2019-11-26 09:00:00 18.2 16 Sur 59 Sur 0 -- -- 59
2019-11-26 08:00:00 18.4 30 Sur 57 Sur 0 -- -- 58
2019-11-26 07:00:00 18.5 19 Sur 56 Sur 0 -- -- 57
2019-11-26 06:00:00 18.3 22 Sur 66 Sudeste 0 -- -- 55
2019-11-26 05:00:00 17.9 21 Sudoeste 49 Sur 0 -- -- 56
2019-11-26 04:00:00 16.1 15 Sur 36 Sudeste 0 -- -- 59
2019-11-26 03:00:00 13.3 9 Norte 21 Nordeste 0 -- -- 74
2019-11-26 02:00:00 9.5 5 Oeste 15 Noroeste 0 -- -- 98
2019-11-26 01:00:00 9.2 4 Sudoeste 8 Oeste 0 -- -- 98
2019-11-26 00:00:00 9.3 0 Calma 4 Sudoeste 0 -- -- 98
2019-11-25 23:00:00 9.1 2 Oeste 4 Oeste 0 -- -- 97
2019-11-25 22:00:00 10 0 Calma 3 Nordeste 0 -- -- 95
2019-11-25 21:00:00 11.6 0 Calma 4 Este 0 -- -- 92
2019-11-25 20:00:00 13 0 Calma 3 Sudeste 0 -- -- 92
2019-11-25 19:00:00 13.5 0 Calma 5 Sur 0 -- -- 91
2019-11-25 18:00:00 14.2 2 Sudeste 7 Este 0 -- -- 88
2019-11-25 17:00:00 15 4 Este 10 Este 0 -- -- 84
2019-11-25 16:00:00 15.8 5 Este 12 Este 0 -- -- 81
2019-11-25 15:00:00 16.5 6 Este 13 Nordeste 0 -- -- 77
2019-11-25 14:00:00 16.8 6 Este 16 Este 0 -- -- 77
2019-11-25 13:00:00 17.9 7 Este 12 Este 0 -- -- 73
2019-11-25 12:00:00 16 0 Calma 5 Oeste 0 -- -- 78
2019-11-25 11:00:00 13.8 3 Sudoeste 8 Sudoeste 0 -- -- 83
2019-11-25 10:00:00 10.9 0 Calma 6 Sudoeste 0 -- -- 94
2019-11-25 09:00:00 9.8 2 Oeste 5 Noroeste 0 -- -- 96
2019-11-25 08:00:00 10.5 3 Oeste 8 Sudeste 0 -- -- 93
2019-11-25 07:00:00 11.1 5 Sudoeste 11 Oeste 0 -- -- 89
2019-11-25 06:00:00 11.7 3 Oeste 13 Oeste 0 -- -- 84
2019-11-25 05:00:00 14.2 6 Oeste 39 Sudeste 0 -- -- 72
2019-11-25 04:00:00 15.8 14 Sur 37 Sur 0 -- -- 61
2019-11-25 03:00:00 14.2 6 Norte 18 Sudeste 0 -- -- 68
2019-11-25 02:00:00 14.3 4 Sudeste 32 Sur 0 -- -- 73
2019-11-25 01:00:00 15.5 17 Sur 42 Sur 0 -- -- 62
2019-11-25 00:00:00 14.4 7 Este 30 Nordeste 0 -- -- 67
2019-11-24 23:00:00 14.7 12 Nordeste 27 Este 0 -- -- 65
2019-11-24 22:00:00 14.3 14 Sur 41 Sudoeste 0.2 -- -- 65
2019-11-24 21:00:00 14.4 6 Sur 39 Sur 0.4 -- -- 71
2019-11-24 20:00:00 14.1 10 Sudeste 30 Sudeste 0 -- -- 63
2019-11-24 19:00:00 12.9 6 Este 26 Nordeste 0 -- -- 68
2019-11-24 18:00:00 13.9 10 Nordeste 30 Oeste 0 -- -- 60
2019-11-24 17:00:00 12.9 8 Sudeste 17 Este 0 -- -- 64
2019-11-24 16:00:00 13.3 5 Sudeste 15 Sur 0 -- -- 61
2019-11-24 15:00:00 14 3 Sur 12 Nordeste 0 -- -- 74
2019-11-24 14:00:00 14 6 Este 12 Nordeste 0 -- -- 74
2019-11-24 13:00:00 13.8 3 Sudeste 6 Este 0 -- -- 77
2019-11-24 12:00:00 11.3 0 Calma 3 Sudoeste 0 -- -- 89
2019-11-24 11:00:00 9.8 0 Calma 5 Oeste 0 -- -- 98
2019-11-24 10:00:00 9 0 Calma 4 Noroeste 0.2 -- -- 98
2019-11-24 09:00:00 8.8 0 Calma 6 Oeste 0 -- -- 97
2019-11-24 08:00:00 9 3 Sur 11 Sudoeste 1.2 -- -- 96
2019-11-24 07:00:00 9 3 Sur 12 Noroeste 0.6 -- -- 95
2019-11-24 06:00:00 8.7 4 Sur 9 Sur 0 -- -- 96
2019-11-24 05:00:00 8.5 0 Calma 8 Sur 0.2 -- -- 95
2019-11-24 04:00:00 8.8 3 Sudeste 11 Oeste 0.4 -- -- 95
2019-11-24 03:00:00 9.1 4 Noroeste 13 Noroeste 0.4 -- -- 92
2019-11-24 02:00:00 8.9 3 Noroeste 15 Noroeste 0.4 -- -- 93
2019-11-24 01:00:00 8.5 2 Norte 8 Sur 0.4 -- -- 95
2019-11-24 00:00:00 8.8 3 Este 27 Oeste 2 -- -- 93
2019-11-23 23:00:00 8.7 3 Sudeste 19 Oeste 0.8 -- -- 92
2019-11-23 22:00:00 10.1 3 Noroeste 25 Oeste 0.2 -- -- 83
2019-11-23 21:00:00 9.8 6 Noroeste 32 Sudoeste 0.2 -- -- 81
2019-11-23 20:00:00 8.9 5 Noroeste 20 Noroeste 0.8 -- -- 91
2019-11-23 19:00:00 9.2 4 Noroeste 21 Oeste 2.4 -- -- 92
2019-11-23 18:00:00 9.8 8 Noroeste 24 Oeste 2.2 -- -- 87
2019-11-23 17:00:00 11 10 Noroeste 28 Oeste 0.2 -- -- 81
2019-11-23 16:00:00 11.3 6 Noroeste 33 Sudoeste 0.4 -- -- 83
2019-11-23 15:00:00 12.5 6 Noroeste 33 Oeste 0.6 -- -- 75
2019-11-23 14:00:00 12.1 7 Noroeste 29 Sudoeste 0.4 -- -- 80
2019-11-23 13:00:00 11.4 4 Este 47 Sudoeste 0.4 -- -- 79
2019-11-23 12:00:00 11.9 6 Noroeste 40 Oeste 0.2 -- -- 73
2019-11-23 11:00:00 10.4 12 Noroeste 35 Oeste 0.8 -- -- 80
2019-11-23 10:00:00 10.2 14 Oeste 45 Oeste 0.6 -- -- 82
2019-11-23 09:00:00 9.9 11 Noroeste 73 Sudoeste 1.2 -- -- 84
2019-11-23 08:00:00 10.2 17 Noroeste 67 Oeste 2.8 -- -- 85
2019-11-23 07:00:00 10.9 20 Oeste 54 Sudoeste 8 -- -- 86
2019-11-23 06:00:00 10.8 19 Oeste 48 Sudoeste 8.2 -- -- 87
2019-11-23 05:00:00 10.8 12 Oeste 34 Oeste 3.8 -- -- 85
2019-11-23 04:00:00 10.5 4 Sudeste 10 Oeste 1.8 -- -- 92
2019-11-23 03:00:00 12.9 3 Sudoeste 24 Sur 0.8 -- -- 76
2019-11-23 02:00:00 14.4 12 Sur 30 Sudoeste 0 -- -- 56
2019-11-23 01:00:00 14.9 11 Sur 37 Oeste 0 -- -- 55
2019-11-23 00:00:00 15.1 12 Sudoeste 41 Sudoeste 0 -- -- 55
2019-11-22 23:00:00 15.2 12 Sur 51 Oeste 0 -- -- 54
2019-11-22 22:00:00 15.2 20 Sudoeste 63 Sudoeste 0 -- -- 54
2019-11-22 21:00:00 15.2 20 Sudoeste 61 Oeste 0 -- -- 53
2019-11-22 20:00:00 15.2 13 Sudoeste 61 Oeste 0 -- -- 57
2019-11-22 19:00:00 12.4 6 Sur 15 Sudoeste 0.2 -- -- 80
2019-11-22 18:00:00 14 4 Sur 39 Norte 0 -- -- 76
2019-11-22 17:00:00 17.6 12 Oeste 56 Oeste 0 -- -- 57
2019-11-22 16:00:00 16.7 12 Este 56 Este 0 -- -- 65
2019-11-22 15:00:00 16.3 19 Sudeste 57 Sudoeste 0 -- -- 66
2019-11-22 14:00:00 13.5 5 Nordeste 59 Sudoeste 0.4 -- -- 80
2019-11-22 13:00:00 13.5 14 Este 61 Sur 0.8 -- -- 79
2019-11-22 12:00:00 15.1 21 Sur 70 Sudeste 0 -- -- 61
2019-11-22 11:00:00 14.7 10 Sur 38 Sudeste 0 -- -- 61
2019-11-22 10:00:00 13.4 9 Sudeste 38 Sudeste 0.2 -- -- 62
2019-11-22 09:00:00 13.9 12 Este 39 Norte 0 -- -- 60
2019-11-22 08:00:00 13.7 10 Noroeste 52 Sudeste 0 -- -- 59
2019-11-22 07:00:00 14 13 Sudoeste 53 Sudeste 0 -- -- 57
2019-11-22 06:00:00 13.5 13 Sudeste 41 Sur 0 -- -- 58
2019-11-22 05:00:00 12.9 8 Sudeste 58 Sudeste 0 -- -- 62
2019-11-22 04:00:00 12.7 10 Sur 41 Este 0 -- -- 61
2019-11-22 03:00:00 12.8 5 Sudoeste 46 Oeste 0 -- -- 59
2019-11-22 02:00:00 12.6 13 Sur 37 Oeste 0 -- -- 56
2019-11-22 01:00:00 12.2 10 Este 33 Sudeste 0 -- -- 58
2019-11-22 00:00:00 12.9 12 Sur 35 Sur 0 -- -- 55
2019-11-21 23:00:00 9.6 10 Sur 24 Sudeste 0 -- -- 70
2019-11-21 22:00:00 4.3 0 Calma 5 Sudeste 0 -- -- 97
2019-11-21 21:00:00 4.3 2 Oeste 4 Sudoeste 0 -- -- 95
2019-11-21 20:00:00 5.2 3 Oeste 7 Oeste 0 -- -- 93
2019-11-21 19:00:00 6.4 0 Calma 4 Sur 0 -- -- 89
2019-11-21 18:00:00 8.3 0 Calma 6 Oeste 0 -- -- 84
2019-11-21 17:00:00 11.2 0 Calma 15 Este 0 -- -- 76
2019-11-21 16:00:00 13.2 7 Este 12 Este 0 -- -- 65
2019-11-21 15:00:00 16.2 3 Sudoeste 9 Oeste 0 -- -- 49
2019-11-21 14:00:00 16.9 4 Noroeste 9 Oeste 0 -- -- 45
2019-11-21 13:00:00 15.2 5 Sudoeste 22 Norte 0 -- -- 64
2019-11-21 12:00:00 16.4 2 Sudeste 17 Sudoeste 0 -- -- 48
2019-11-21 11:00:00 13.5 5 Sur 20 Oeste 0 -- -- 63
2019-11-21 10:00:00 9.7 4 Sudeste 19 Sudoeste 0 -- -- 77
2019-11-21 09:00:00 11.5 5 Nordeste 29 Oeste 0 -- -- 64
2019-11-21 08:00:00 11.5 8 Sur 31 Sur 0 -- -- 63
2019-11-21 07:00:00 12 14 Sur 33 Sudeste 0 -- -- 59
2019-11-21 06:00:00 12.3 14 Sur 38 Sur 0 -- -- 58
2019-11-21 05:00:00 11.9 6 Sudeste 34 Sudeste 0 -- -- 65
2019-11-21 04:00:00 12.4 16 Sur 40 Sudeste 0 -- -- 62
2019-11-21 03:00:00 12.8 11 Sudoeste 53 Oeste 0 -- -- 57
2019-11-21 02:00:00 12.7 15 Sudoeste 66 Oeste 0 -- -- 58
2019-11-21 01:00:00 12.6 19 Sur 48 Sudeste 0 -- -- 60
2019-11-21 00:00:00 12.8 17 Sur 39 Sur 0 -- -- 59
2019-11-20 23:00:00 12.2 6 Nordeste 33 Sur 0 -- -- 60
2019-11-20 22:00:00 12.5 18 Sur 39 Sur 0 -- -- 61
2019-11-20 21:00:00 12.5 15 Sudoeste 49 Sur 0 -- -- 62
2019-11-20 20:00:00 12.6 17 Sur 35 Sur 0 -- -- 61
2019-11-20 19:00:00 12.3 12 Sur 41 Sur 0 -- -- 63
2019-11-20 18:00:00 12.4 9 Sudoeste 23 Oeste 0 -- -- 66
2019-11-20 17:00:00 12 6 Sudoeste 25 Oeste 0 -- -- 70
2019-11-20 16:00:00 12.7 11 Sudoeste 24 Sudoeste 0 -- -- 65
2019-11-20 15:00:00 13.5 7 Sudeste 26 Sur 0 -- -- 63
2019-11-20 14:00:00 13.7 8 Sudoeste 37 Sur 0 -- -- 59
2019-11-20 13:00:00 13.3 5 Este 30 Sudeste 0 -- -- 64
2019-11-20 12:00:00 13.5 7 Sur 21 Oeste 0 -- -- 64
2019-11-20 11:00:00 7 3 Noroeste 8 Sudoeste 0 -- -- 100
2019-11-20 10:00:00 4.3 3 Sudoeste 8 Oeste 0 -- -- 100
2019-11-20 09:00:00 3.3 3 Sudeste 5 Sudoeste 0 -- -- 100
2019-11-20 08:00:00 2.5 0 Calma 5 Noroeste 0 -- -- 100
2019-11-20 07:00:00 2.2 3 Oeste 5 Sur 0 -- -- 100
2019-11-20 06:00:00 1.8 0 Calma 4 Sudeste 0 -- -- 100
2019-11-20 05:00:00 2.1 2 Sudoeste 5 Este 0 -- -- 100
2019-11-20 04:00:00 2.4 2 Oeste 6 Sudoeste 0 -- -- 100
2019-11-20 03:00:00 2.4 3 Oeste 5 Oeste 0 -- -- 99
2019-11-20 02:00:00 2.7 4 Oeste 5 Oeste 0 -- -- 100
2019-11-20 01:00:00 2.9 2 Sudoeste 5 Oeste 0 -- -- 99
2019-11-20 00:00:00 3.3 0 Calma 6 Oeste 0 -- -- 99
2019-11-19 23:00:00 3.7 0 Calma 4 Oeste 0 -- -- 99
2019-11-19 22:00:00 4 0 Calma 5 Oeste 0 -- -- 99
2019-11-19 21:00:00 4.7 0 Calma 7 Sudoeste 0 -- -- 98
2019-11-19 20:00:00 5.1 0 Calma 6 Oeste 0 -- -- 97
2019-11-19 19:00:00 5.9 0 Calma 4 Oeste 0 -- -- 96
2019-11-19 18:00:00 7.2 0 Calma 4 Sur 0 -- -- 95
2019-11-19 17:00:00 8.9 0 Calma 5 Sudoeste 0 -- -- 93
2019-11-19 16:00:00 10.6 0 Calma 7 Sudeste 0 -- -- 87
2019-11-19 15:00:00 12.1 2 Sudeste 8 Nordeste 0 -- -- 85
2019-11-19 14:00:00 12.7 2 Oeste 9 Noroeste 0 -- -- 79
2019-11-19 13:00:00 10.8 6 Oeste 9 Oeste 0 -- -- 81
2019-11-19 12:00:00 8.7 2 Oeste 4 Oeste 0 -- -- 90
2019-11-19 11:00:00 5.6 2 Sudoeste 6 Oeste 0 -- -- 100
2019-11-19 10:00:00 4.4 2 Oeste 5 Sur 0 -- -- 100
2019-11-19 09:00:00 4.3 3 Noroeste 6 Oeste 0 -- -- 100
2019-11-19 08:00:00 4.4 0 Calma 9 Oeste 0 -- -- 100
2019-11-19 07:00:00 4.8 0 Calma 4 Sur 0 -- -- 100
2019-11-19 06:00:00 4.8 3 Sudoeste 7 Noroeste 0 -- -- 100
2019-11-19 05:00:00 5.3 3 Noroeste 7 Oeste 0 -- -- 99
2019-11-19 04:00:00 5.9 0 Calma 5 Nordeste 0 -- -- 99
2019-11-19 03:00:00 6 3 Este 4 Este 0 -- -- 99
2019-11-19 02:00:00 6.7 0 Calma 5 Nordeste 0 -- -- 99
2019-11-19 01:00:00 6.8 3 Nordeste 5 Norte 0.2 -- -- 99
2019-11-19 00:00:00 6.8 3 Oeste 4 Oeste 0 -- -- 99
2019-11-18 23:00:00 6.8 2 Oeste 5 Sudoeste 0 -- -- 99
2019-11-18 22:00:00 7 2 Sudoeste 5 Oeste 0 -- -- 98
2019-11-18 21:00:00 7.3 2 Sudoeste 4 Sudoeste 0.2 -- -- 98
2019-11-18 20:00:00 7.5 0 Calma 5 Oeste 0 -- -- 97
2019-11-18 19:00:00 8.1 2 Nordeste 12 Oeste 1.6 -- -- 94
2019-11-18 18:00:00 8.8 5 Oeste 13 Oeste 0 -- -- 95
2019-11-18 17:00:00 9.7 0 Calma 3 Sur 0 -- -- 93
2019-11-18 16:00:00 10.6 0 Calma 6 Oeste 0 -- -- 88
2019-11-18 15:00:00 10.8 6 Oeste 14 Oeste 0 -- -- 74
2019-11-18 14:00:00 11 0 Calma 5 Sudoeste 0 -- -- 86
2019-11-18 13:00:00 9.6 3 Sudoeste 11 Noroeste 0.6 -- -- 93
2019-11-18 12:00:00 9.7 3 Noroeste 17 Nordeste 0.2 -- -- 92
2019-11-18 11:00:00 9 0 Calma 11 Noroeste 0 -- -- 96
2019-11-18 10:00:00 7.8 0 Calma 4 Oeste 0 -- -- 99
2019-11-18 09:00:00 7.1 3 Oeste 11 Noroeste 0 -- -- 97
2019-11-18 08:00:00 7.6 6 Oeste 12 Noroeste 0.6 -- -- 98
2019-11-18 07:00:00 7.2 2 Noroeste 10 Noroeste 0 -- -- 99
2019-11-18 06:00:00 7 0 Calma 4 Sudoeste 0 -- -- 98
2019-11-18 05:00:00 7.3 0 Calma 10 Noroeste 0 -- -- 97
2019-11-18 04:00:00 7.8 5 Noroeste 12 Oeste 1.2 -- -- 97
2019-11-18 03:00:00 7.8 0 Calma 14 Oeste 1.4 -- -- 97
2019-11-18 02:00:00 8.2 3 Noroeste 9 Oeste 0.8 -- -- 98
2019-11-18 01:00:00 8.2 2 Noroeste 13 Oeste 0 -- -- 97
2019-11-18 00:00:00 8.5 7 Noroeste 25 Oeste 0.8 -- -- 95
2019-11-17 23:00:00 7.9 6 Oeste 14 Oeste 5 -- -- 97
2019-11-17 22:00:00 8 4 Noroeste 15 Oeste 2.6 -- -- 96
2019-11-17 21:00:00 7.8 9 Oeste 19 Oeste 3.2 -- -- 93
2019-11-17 20:00:00 8.7 4 Este 31 Noroeste 0.8 -- -- 86
2019-11-17 19:00:00 9 5 Oeste 13 Sur 0 -- -- 87
2019-11-17 18:00:00 9.2 3 Sur 17 Sudoeste 0 -- -- 83
2019-11-17 17:00:00 10.9 3 Sudoeste 17 Sudoeste 0 -- -- 79
2019-11-17 16:00:00 11.7 3 Sur 18 Sudoeste 0 -- -- 74
2019-11-17 15:00:00 11.8 3 Sudoeste 28 Oeste 1.8 -- -- 81
2019-11-17 14:00:00 11.4 8 Noroeste 28 Oeste 2.2 -- -- 87
2019-11-17 13:00:00 13.3 5 Noroeste 28 Sudoeste 0 -- -- 74
2019-11-17 12:00:00 9.9 3 Este 9 Este 1 -- -- 100
2019-11-17 11:00:00 8.9 2 Este 5 Nordeste 0.6 -- -- 100
2019-11-17 10:00:00 8 2 Oeste 6 Oeste 0.6 -- -- 100
2019-11-17 09:00:00 7.4 0 Calma 6 Oeste 1.2 -- -- 100
2019-11-17 08:00:00 7.1 0 Calma 6 Oeste 0 -- -- 100
2019-11-17 07:00:00 7.1 0 Calma 3 Este 0.4 -- -- 100
2019-11-17 06:00:00 7.1 0 Calma 3 Sudeste 1 -- -- 100
2019-11-17 05:00:00 7.1 3 Oeste 4 Oeste 0.2 -- -- 99
2019-11-17 04:00:00 6.9 0 Calma 3 Oeste 0.4 -- -- 99
2019-11-17 03:00:00 6.8 0 Calma 9 Oeste 0 -- -- 99
2019-11-17 02:00:00 6.7 0 Calma 4 Oeste 0 -- -- 99
2019-11-17 01:00:00 6.6 0 Calma 5 Sur 0 -- -- 98
2019-11-17 00:00:00 6.8 2 Oeste 5 Sur 0.2 -- -- 98
2019-11-16 23:00:00 6.9 2 Sur 8 Sudeste 0.2 -- -- 97
2019-11-16 22:00:00 6.7 3 Sudeste 10 Oeste 0 -- -- 97
2019-11-16 21:00:00 6.8 4 Este 12 Sudeste 0 -- -- 97
2019-11-16 20:00:00 6.9 4 Sudeste 10 Sudeste 0.2 -- -- 94
2019-11-16 19:00:00 7.5 4 Nordeste 16 Oeste 0 -- -- 93
2019-11-16 18:00:00 8.2 3 Este 28 Oeste 0.8 -- -- 89
2019-11-16 17:00:00 8.7 4 Oeste 18 Oeste 1 -- -- 89
2019-11-16 16:00:00 9 9 Noroeste 25 Oeste 1.2 -- -- 86
2019-11-16 15:00:00 10.6 8 Noroeste 22 Noroeste 0.4 -- -- 79
2019-11-16 14:00:00 11.9 8 Noroeste 41 Sudoeste 0 -- -- 72
2019-11-16 13:00:00 9.4 3 Noroeste 28 Noroeste 1 -- -- 86
2019-11-16 12:00:00 8.5 4 Noroeste 21 Oeste 2.6 -- -- 92
2019-11-16 11:00:00 8.1 4 Norte 32 Oeste 2.2 -- -- 91
2019-11-16 10:00:00 7.1 5 Noroeste 19 Oeste 0.8 -- -- 100
2019-11-16 09:00:00 4.8 3 Sudeste 8 Noroeste 0 -- -- 100
2019-11-16 08:00:00 3.8 3 Sudeste 5 Sur 0.2 -- -- 100
2019-11-16 07:00:00 3.2 0 Calma 8 Oeste 0.2 -- -- 100
2019-11-16 06:00:00 2.4 3 Nordeste 8 Este 0.6 -- -- 100
2019-11-16 05:00:00 1.7 0 Calma 5 Oeste 0 -- -- 100
2019-11-16 04:00:00 1.8 0 Calma 4 Oeste 0.2 -- -- 100
2019-11-16 03:00:00 1.4 0 Calma 5 Oeste 0 -- -- 99
2019-11-16 02:00:00 1.6 3 Sudoeste 4 Oeste 0 -- -- 99
2019-11-16 01:00:00 1.9 0 Calma 6 Oeste 0 -- -- 98
2019-11-16 00:00:00 2.8 2 Sudoeste 8 Este 0 -- -- 97
2019-11-15 23:00:00 4.3 4 Nordeste 14 Sudeste 0.2 -- -- 95
2019-11-15 22:00:00 4.8 0 Calma 3 Sudoeste 3.8 -- -- 98
2019-11-15 21:00:00 4.7 0 Calma 10 Sudoeste 1.6 -- -- 96
2019-11-15 20:00:00 4.8 2 Noroeste 12 Sudeste 0.2 -- -- 95
2019-11-15 19:00:00 4.9 5 Sur 9 Sur 1 -- -- 96
2019-11-15 18:00:00 4.9 3 Oeste 7 Sudoeste 2 -- -- 96
2019-11-15 17:00:00 5 0 Calma 18 Oeste 0.4 -- -- 90
2019-11-15 16:00:00 4.9 9 Oeste 25 Oeste 1.2 -- -- 92
2019-11-15 15:00:00 5.8 9 Noroeste 23 Oeste 2.6 -- -- 92
2019-11-15 14:00:00 6.5 3 Sudoeste 16 Oeste 0.8 -- -- 91
2019-11-15 13:00:00 7.2 4 Oeste 13 Oeste 1.2 -- -- 91
2019-11-15 12:00:00 7.7 8 Oeste 22 Noroeste 3.4 -- -- 91
2019-11-15 11:00:00 8.3 4 Noroeste 30 Oeste 2.4 -- -- 91
2019-11-15 10:00:00 8.2 10 Oeste 21 Noroeste 1 -- -- 93
2019-11-15 09:00:00 7.5 6 Noroeste 21 Oeste 4.2 -- -- 92
2019-11-15 08:00:00 6.7 6 Noroeste 26 Oeste 2.4 -- -- 99
2019-11-15 07:00:00 6 0 Calma 9 Oeste 2.6 -- -- 99
2019-11-15 06:00:00 5.9 2 Nordeste 11 Este 4.2 -- -- 99
2019-11-15 05:00:00 5.6 2 Oeste 10 Oeste 1.8 -- -- 100
2019-11-15 04:00:00 5 3 Oeste 7 Sudoeste 1 -- -- 100
2019-11-15 03:00:00 4.4 4 Sudeste 12 Oeste 1.2 -- -- 100
2019-11-15 02:00:00 3.3 4 Norte 16 Sudeste 0.2 -- -- 100
2019-11-15 01:00:00 2.2 2 Sudoeste 8 Oeste 0 -- -- 99
2019-11-15 00:00:00 2.2 3 Oeste 6 Oeste 0 -- -- 98
2019-11-14 23:00:00 2.3 2 Sudoeste 5 Oeste 0 -- -- 97
2019-11-14 22:00:00 3.2 0 Calma 7 Sudeste 0 -- -- 95
2019-11-14 21:00:00 4.3 3 Sudoeste 9 Este 0.4 -- -- 94
2019-11-14 20:00:00 4.7 4 Oeste 15 Oeste 3.4 -- -- 91
2019-11-14 19:00:00 6 2 Oeste 22 Oeste 4.6 -- -- 93
2019-11-14 18:00:00 7.5 6 Noroeste 15 Oeste 0.8 -- -- 88
2019-11-14 17:00:00 8.6 4 Sudeste 17 Este 0 -- -- 81
2019-11-14 16:00:00 9.6 9 Este 23 Este 0 -- -- 80
2019-11-14 15:00:00 12.1 9 Este 21 Nordeste 0 -- -- 67
2019-11-14 14:00:00 13.8 5 Oeste 10 Sur 0 -- -- 54
2019-11-14 13:00:00 13 4 Sudeste 14 Sudeste 0 -- -- 51
2019-11-14 12:00:00 11.4 4 Sudeste 16 Sudeste 0 -- -- 58
2019-11-14 11:00:00 9.2 4 Sudeste 17 Este 0 -- -- 79
2019-11-14 10:00:00 6 2 Sudeste 8 Sudeste 0 -- -- 93
2019-11-14 09:00:00 4.7 3 Sudeste 9 Oeste 0.2 -- -- 97
2019-11-14 08:00:00 4.8 3 Sudoeste 16 Nordeste 0 -- -- 92
2019-11-14 07:00:00 6.6 5 Nordeste 30 Sudoeste 0 -- -- 84
2019-11-14 06:00:00 5.9 6 Este 12 Sur 0.4 -- -- 94
2019-11-14 05:00:00 6.3 3 Sudeste 15 Nordeste 1.8 -- -- 93
2019-11-14 04:00:00 6.6 4 Noroeste 19 Oeste 3 -- -- 90
2019-11-14 03:00:00 7.3 3 Oeste 17 Oeste 5.8 -- -- 90
2019-11-14 02:00:00 8.2 0 Calma 10 Sudoeste 3.4 -- -- 95
2019-11-14 01:00:00 9 6 Oeste 27 Oeste 5.4 -- -- 91
2019-11-14 00:00:00 9.4 3 Este 27 Oeste 3.8 -- -- 98
2019-11-13 23:00:00 7.7 4 Oeste 11 Sudoeste 0 -- -- 99
2019-11-13 22:00:00 8.2 0 Calma 5 Sur 0 -- -- 97
2019-11-13 21:00:00 9.4 0 Calma 18 Sur 0 -- -- 96
2019-11-13 20:00:00 9.4 3 Sudeste 7 Sur 0 -- -- 98
2019-11-13 19:00:00 9.2 0 Calma 4 Sudeste 0 -- -- 97
2019-11-13 18:00:00 10.2 0 Calma 4 Este 0 -- -- 95
2019-11-13 17:00:00 11.1 3 Sur 6 Sur 0.2 -- -- 94
2019-11-13 16:00:00 11.2 3 Sudeste 6 Sudoeste 0.4 -- -- 93
2019-11-13 15:00:00 11.5 4 Sur 12 Oeste 1.4 -- -- 91
2019-11-13 14:00:00 12 5 Oeste 9 Noroeste 0 -- -- 82
2019-11-13 13:00:00 12.2 3 Sudoeste 13 Oeste 0 -- -- 87
2019-11-13 12:00:00 12.3 0 Calma 7 Oeste 0 -- -- 90
2019-11-13 11:00:00 11.2 4 Noroeste 10 Noroeste 0.8 -- -- 97
2019-11-13 10:00:00 10.8 2 Oeste 9 Noroeste 0 -- -- 99
2019-11-13 09:00:00 10.3 0 Calma 8 Oeste 0 -- -- 99
2019-11-13 08:00:00 10.2 0 Calma 14 Oeste 1 -- -- 99
2019-11-13 07:00:00 10.3 5 Oeste 15 Sudoeste 7.8 -- -- 99
2019-11-13 06:00:00 9.8 0 Calma 10 Oeste 6.6 -- -- 99
2019-11-13 05:00:00 9.7 0 Calma 4 Sudeste 0.8 -- -- 99
2019-11-13 04:00:00 9.6 2 Sudeste 10 Oeste 4.2 -- -- 99
2019-11-13 03:00:00 9.5 3 Oeste 10 Oeste 1.6 -- -- 99
2019-11-13 02:00:00 9.4 0 Calma 3 Sur 0 -- -- 99
2019-11-13 01:00:00 9.4 0 Calma 4 Sudoeste 0.2 -- -- 99
2019-11-13 00:00:00 9.5 0 Calma 6 Oeste 0.2 -- -- 98
2019-11-12 23:00:00 9.7 3 Oeste 7 Oeste 0.6 -- -- 98
2019-11-12 22:00:00 9.9 3 Sudoeste 17 Sur 1.2 -- -- 97
2019-11-12 21:00:00 10.4 6 Este 17 Sudeste 0.8 -- -- 91
2019-11-12 20:00:00 10.3 4 Sudeste 13 Este 1.6 -- -- 95
2019-11-12 19:00:00 10.3 0 Calma 4 Este 1.6 -- -- 97
2019-11-12 18:00:00 10.8 0 Calma 3 Sur 0.4 -- -- 96
2019-11-12 17:00:00 11.7 0 Calma 5 Sur 0 -- -- 93
2019-11-12 16:00:00 13.1 0 Calma 8 Sur 0 -- -- 88
2019-11-12 15:00:00 13.7 3 Sudeste 10 Sudoeste 0 -- -- 85
2019-11-12 14:00:00 12.1 3 Sudoeste 9 Sudoeste 0 -- -- 86
2019-11-12 13:00:00 11.8 3 Sur 13 Sur 0 -- -- 86
2019-11-12 12:00:00 11.2 3 Sudeste 10 Sudeste 0 -- -- 91
2019-11-12 11:00:00 10.1 4 Sur 9 Sudeste 0 -- -- 100
2019-11-12 10:00:00 9.1 0 Calma 10 Sudeste 0 -- -- 100
2019-11-12 09:00:00 8.4 2 Oeste 8 Norte 0 -- -- 100
2019-11-12 08:00:00 8.1 2 Sudeste 5 Sudeste 0.2 -- -- 99
2019-11-12 07:00:00 8.1 2 Norte 6 Oeste 0.2 -- -- 99
2019-11-12 06:00:00 8.5 0 Calma 8 Sudeste 2.2 -- -- 99
2019-11-12 05:00:00 8.4 2 Sur 10 Sur 1.4 -- -- 99
2019-11-12 04:00:00 8.2 0 Calma 6 Oeste 0.8 -- -- 99
2019-11-12 03:00:00 8 0 Calma 8 Este 0 -- -- 99
2019-11-12 02:00:00 8.3 2 Sudeste 6 Sudeste 0.8 -- -- 99
2019-11-12 01:00:00 8.3 2 Sudoeste 5 Sudoeste 1 -- -- 99
2019-11-12 00:00:00 8.2 3 Oeste 7 Este 0.4 -- -- 99
2019-11-11 23:00:00 7.9 3 Sudeste 6 Noroeste 0.4 -- -- 99
2019-11-11 22:00:00 8.1 0 Calma 4 Oeste 0 -- -- 98
2019-11-11 21:00:00 8.1 0 Calma 4 Oeste 0.2 -- -- 97
2019-11-11 20:00:00 8.9 2 Sur 7 Noroeste 0.8 -- -- 96
2019-11-11 19:00:00 9.3 2 Sudoeste 8 Oeste 0.4 -- -- 96
2019-11-11 18:00:00 10.1 2 Sudeste 15 Oeste 0.4 -- -- 92
2019-11-11 17:00:00 11.6 6 Noroeste 27 Oeste 0 -- -- 79
2019-11-11 16:00:00 12 9 Noroeste 29 Oeste 0 -- -- 77
2019-11-11 15:00:00 12 6 Noroeste 26 Noroeste 0 -- -- 78
2019-11-11 14:00:00 12.7 8 Noroeste 27 Oeste 0 -- -- 77
2019-11-11 13:00:00 11.8 8 Noroeste 32 Norte 0.4 -- -- 90
2019-11-11 12:00:00 12.3 13 Noroeste 39 Oeste 6.6 -- -- 94
2019-11-11 11:00:00 12.8 14 Noroeste 32 Oeste 0.6 -- -- 100
2019-11-11 10:00:00 9.1 0 Calma 5 Nordeste 0.6 -- -- 100
2019-11-11 09:00:00 8.5 0 Calma 3 Oeste 0.4 -- -- 100
2019-11-11 08:00:00 8.2 0 Calma 4 Oeste 0 -- -- 100
2019-11-11 07:00:00 8 0 Calma 3 Sudeste 0 -- -- 100
2019-11-11 06:00:00 7.9 0 Calma 3 Sudoeste 0 -- -- 100
2019-11-11 05:00:00 7.9 0 Calma 4 Nordeste 0 -- -- 100
2019-11-11 04:00:00 7.8 0 Calma 4 Sudoeste 0 -- -- 99
2019-11-11 03:00:00 7.7 0 Calma 4 Sur 0 -- -- 99
2019-11-11 02:00:00 7.8 3 Oeste 7 Oeste 0.2 -- -- 99
2019-11-11 01:00:00 7.7 2 Oeste 4 Noroeste 0.2 -- -- 99
2019-11-11 00:00:00 7.6 0 Calma 6 Nordeste 0.2 -- -- 98
2019-11-10 23:00:00 7.7 3 Sudoeste 6 Oeste 0.6 -- -- 98
2019-11-10 22:00:00 7.8 4 Sudoeste 12 Oeste 3.2 -- -- 97
2019-11-10 21:00:00 8 4 Sudoeste 22 Norte 1.6 -- -- 94
2019-11-10 20:00:00 7.7 0 Calma 14 Oeste 1.2 -- -- 94
2019-11-10 19:00:00 7.8 0 Calma 9 Noroeste 2.4 -- -- 96
2019-11-10 18:00:00 8.1 2 Este 10 Oeste 2 -- -- 96
2019-11-10 17:00:00 8.3 3 Noroeste 27 Noroeste 0.4 -- -- 93
2019-11-10 16:00:00 9.9 4 Noroeste 30 Oeste 0.8 -- -- 92
2019-11-10 15:00:00 10.3 4 Noroeste 16 Noroeste 0 -- -- 85
2019-11-10 14:00:00 9.8 5 Noroeste 21 Oeste 0.4 -- -- 89
2019-11-10 13:00:00 8.7 3 Noroeste 34 Norte 2 -- -- 89
2019-11-10 12:00:00 9.6 3 Noroeste 9 Oeste 2 -- -- 93
2019-11-10 11:00:00 8.6 0 Calma 13 Noroeste 1 -- -- 96
2019-11-10 10:00:00 7.5 9 Noroeste 26 Oeste 2.8 -- -- 96
2019-11-10 09:00:00 6.5 2 Oeste 25 Este 2.8 -- -- 97
2019-11-10 08:00:00 6.8 6 Este 13 Oeste 6 -- -- 95
2019-11-10 07:00:00 7.8 4 Oeste 22 Noroeste 3 -- -- 91
2019-11-10 06:00:00 7.8 0 Calma 15 Oeste 0.8 -- -- 95
2019-11-10 05:00:00 7.6 6 Noroeste 23 Oeste 0.8 -- -- 95
2019-11-10 04:00:00 7.4 5 Noroeste 14 Noroeste 0.4 -- -- 95
2019-11-10 03:00:00 7.1 4 Oeste 17 Sudoeste 0 -- -- 96
2019-11-10 02:00:00 7.9 8 Noroeste 21 Noroeste 2.2 -- -- 91
2019-11-10 01:00:00 7.2 2 Sur 23 Oeste 1.6 -- -- 95
2019-11-10 00:00:00 7.8 3 Noroeste 34 Oeste 3.4 -- -- 93
2019-11-09 23:00:00 8.7 3 Nordeste 11 Nordeste 0.2 -- -- 98
2019-11-09 22:00:00 8.5 3 Sudoeste 5 Sur 0 -- -- 97
2019-11-09 21:00:00 8.6 2 Sur 25 Oeste 6 -- -- 94
2019-11-09 20:00:00 9.7 2 Sudeste 23 Oeste 7.2 -- -- 94
2019-11-09 19:00:00 11.1 16 Oeste 37 Oeste 2.2 -- -- 86
2019-11-09 18:00:00 12 15 Noroeste 39 Oeste 1 -- -- 79
2019-11-09 17:00:00 12.7 9 Noroeste 42 Oeste 0.4 -- -- 83
2019-11-09 16:00:00 13.2 8 Noroeste 36 Sudoeste 0.8 -- -- 86
2019-11-09 15:00:00 13.3 4 Noroeste 19 Noroeste 0.4 -- -- 89
2019-11-09 14:00:00 12.6 4 Nordeste 13 Sudeste 0.4 -- -- 93
2019-11-09 13:00:00 11.5 3 Oeste 8 Oeste 0 -- -- 91
2019-11-09 12:00:00 10.5 5 Oeste 9 Oeste 0.6 -- -- 94
2019-11-09 11:00:00 9.4 4 Sudoeste 11 Sudeste 0.4 -- -- 97
2019-11-09 10:00:00 8.9 0 Calma 4 Nordeste 0.4 -- -- 99
2019-11-09 09:00:00 8.5 0 Calma 4 Oeste 0 -- -- 99
2019-11-09 08:00:00 8.2 0 Calma 3 Oeste 0 -- -- 98
2019-11-09 07:00:00 8.6 0 Calma 5 Nordeste 0 -- -- 98
2019-11-09 06:00:00 8.7 0 Calma 8 Oeste 0.2 -- -- 98
2019-11-09 05:00:00 8.9 2 Sur 5 Sur 0.6 -- -- 97
2019-11-09 04:00:00 9.2 4 Sudoeste 10 Oeste 2 -- -- 96
2019-11-09 03:00:00 8.9 0 Calma 10 Oeste 0.2 -- -- 95
2019-11-09 02:00:00 9.1 6 Oeste 15 Noroeste 0 -- -- 92
2019-11-09 01:00:00 9.3 2 Norte 10 Nordeste 0.8 -- -- 93
2019-11-09 00:00:00 9.4 3 Noroeste 14 Oeste 0.2 -- -- 92